Lynnville, Illinois
Current Conditions -  °F | °C
As of 12:35 AM on Saturday 25 Oct 2014 (Local Time) from KIJX Reporting Station
Scattered Clouds Scattered Clouds  
Wind Chill: 63°   Ceiling: Unl
Heat Index: 63°   Visibility: 10mi
Dew Point: 54°   Wind: 8mph
Humidity: 74%   Direction: 200°SSW
Pressure: 29.95"   Gusts: NA
Location:  39.7413°N, 90.2138°W
Report Text: KIJX 250535Z AUTO 20007KT 10SM SCT041 17/12 A2995 RMK AO2 T01700124
Loading
Personal Weather Stations






























Interactive Weather Map
Tropical Storm Tracking
New forecast layout! Learn more

10-Day Weather Forecast

Advertisements
Track Severe Weather on mobile